Etusivu
METAR-TAF:

METAR-TAF

Lentoasemat :

Windom Municipal Airport

Windom, Minnesota, Yhdysvallat

Leveyspiiri: 43-54-48N, Pituuspiiri: 095-06-34W, korkeus merenpinnasta: 430 m

Tämänhetkinen sää

Tämä raportti tehtiin 15 minuuttia sitten, kello 18.36 UTC
Tuuli 13 kn etelästä/lounaasta puuskistuen 18 kn:hen
Lämpötila 17°C
Kosteus 88%
Ilmanpaine 1009 hPa
Näkyvyys: 16.1 km
Pilvistä 1000 ft:n korkeudessa

METAR: KMWM 241836Z AUTO 21013G18KT 10SM OVC010 17/15 A2979 RMK AO2 LTG DSNT S

Aika: 13:51 (18:51 UTC)


TAF: puuttuu

Säähavainnot ja -ennusteet yli 4000 lentoasemalta (METAR- ja TAF-raportit).

Käytössä olevat sääasemat on merkitty karttaan keltaisilla ja punaisilla pisteillä.

Aseta hiiri pisteen päälle nähdäksesi sääaseman nimen.

Klikkaa sitten nähdäksesi säähavainnot ja -ennusteet.

Kartan vaihtaminen: klikkaa mustalla rastilla varustettuja vihreitä pisteitä, niin voit zoomata sisään; viivalla varustettua vihreää pistettä, niin voit zoomata ulos tai vihreitä nuolia, niin pääset viereisille kartoille.


METAR-TAF: